Terrebonne, OR

6:34 AM PST on February 09, 2016 (GMT -0800)
APRSWXNET | | Change Station
CLOSE
Current Station
Personal Weather Station
Location: Culver, OR
Elevation: 3000 ft
Nearby Weather Stations

Elev 3000 ft 44.45 °N, 121.29 °W | Updated 14 minutes ago

Clear
Clear
29 °F
Feels Like 29 °F
N
0
Wind Variable Wind from South
Gusts 0.0 mph

Today
High -- | Low -- °F
--% Chance of Precip.
Yesterday
High -- | Low -- °F
Precip. -- in
Pressure 30.38 in
Visibility 0.2 miles
Clouds
Windchill 29 °F
Dew Point 27 °F
Humidity 94%
Rainfall in
Snow Depth Not available.
7:14 AM 5:25 PM
New Moon, 1% visible
SPECI KRDM 091427Z 00000KT 1/4SM FZFG VV001 M01/M02 A3038 RMK AO2 I1000 T10111022
Pressure 30.38 in
Visibility 0.2 miles
Clouds
Windchill 29 °F
Dew Point 27 °F
Humidity 94%
Rainfall in
Snow Depth Not available.
7:14 AM 5:25 PM
New Moon, 1% visible
SPECI KRDM 091427Z 00000KT 1/4SM FZFG VV001 M01/M02 A3038 RMK AO2 I1000 T10111022

10-Day Weather Forecast

Almanac

Astronomy

Feb. 09, 2016 Rise Set
Actual Time
Civil Twilight
Nautical Twilight
Astronomical Twilight
Moon
Length of Visible Light
Length of Day
Tomorrow will be .
, % of the Moon is Illuminated

Today's Extremes

State Highs State Lows

Community

WunderPhotos

Upload Photos

1,891,606 photos uploaded!

WunderBlog® & News

Nearby

Air Quality

  Air Quality AQ Index Pollutant
Not available.

Snow Depth

Station Depth Elevation

Earthquake Activity

City Distance Mag. Time & Date
Minimum magnitude displayed is 2.5.

Coastal Water Temperatures

Place Temperature

Stations

Nearby Weather Stations

Station Location Temp. Windchill Dew Point Humidity Wind Precip. Elev Updated Type
                   

Watches & Warnings

There are currently no watches in effect.